createdAt,value
2018-11-07T00:02:01.077Z,18.82
2018-11-07T00:04:29.648Z,19.67
2018-11-07T00:06:58.194Z,21.48
2018-11-07T00:09:26.752Z,20.70
2018-11-07T00:11:55.325Z,20.27
2018-11-07T00:14:23.811Z,20.40
2018-11-07T00:16:52.350Z,20.15
2018-11-07T00:19:20.889Z,20.08
2018-11-07T00:21:49.462Z,18.25
2018-11-07T00:24:18.033Z,22.75
2018-11-07T00:26:46.591Z,21.20
2018-11-07T00:29:15.170Z,20.70
2018-11-07T00:31:43.715Z,20.35
2018-11-07T00:34:12.249Z,20.57
2018-11-07T00:36:40.774Z,19.60
2018-11-07T00:39:10.152Z,20.68
2018-11-07T00:41:38.685Z,20.12
2018-11-07T00:44:07.492Z,21.95
2018-11-07T00:46:36.046Z,21.02
2018-11-07T00:49:04.758Z,21.17
2018-11-07T00:51:33.300Z,22.07
2018-11-07T00:54:01.860Z,18.73
2018-11-07T00:56:30.418Z,19.95
2018-11-07T00:58:58.908Z,21.52
2018-11-07T01:01:27.484Z,20.40
2018-11-07T01:03:56.017Z,19.37
2018-11-07T01:06:24.605Z,19.80
2018-11-07T01:08:53.144Z,19.85
2018-11-07T01:11:21.704Z,19.98
2018-11-07T01:13:50.245Z,20.17
2018-11-07T01:16:18.807Z,19.50
2018-11-07T01:18:47.376Z,22.07
2018-11-07T01:21:15.959Z,19.60
2018-11-07T01:23:44.532Z,21.85
2018-11-07T01:26:13.265Z,21.37
2018-11-07T01:28:41.860Z,20.50
2018-11-07T01:31:10.401Z,20.62
2018-11-07T01:33:38.985Z,19.10
2018-11-07T01:36:07.557Z,20.82
2018-11-07T01:38:36.033Z,20.27
2018-11-07T01:41:04.575Z,21.47
2018-11-07T01:43:33.230Z,20.70
2018-11-07T01:46:01.791Z,18.77
2018-11-07T01:48:30.390Z,20.05
2018-11-07T01:50:58.928Z,21.68
2018-11-07T01:53:27.417Z,19.23
2018-11-07T01:55:55.995Z,21.68
2018-11-07T01:58:24.628Z,19.98
2018-11-07T02:00:53.191Z,21.02
2018-11-07T02:03:21.784Z,22.50
2018-11-07T02:05:50.306Z,22.07
2018-11-07T02:08:18.817Z,20.62
2018-11-07T02:10:47.405Z,18.37
2018-11-07T02:13:15.981Z,21.25
2018-11-07T02:15:44.552Z,21.10
2018-11-07T02:18:13.095Z,20.02
2018-11-07T02:20:41.628Z,19.85
2018-11-07T02:23:10.243Z,20.45
2018-11-07T02:25:38.799Z,20.68
2018-11-07T02:28:07.381Z,20.10
2018-11-07T02:30:35.948Z,20.45
2018-11-07T02:33:04.601Z,18.92
2018-11-07T02:35:33.193Z,19.83
2018-11-07T02:38:01.786Z,21.50
2018-11-07T02:40:30.330Z,22.42
2018-11-07T02:42:58.896Z,21.42
2018-11-07T02:45:27.413Z,19.37
2018-11-07T02:47:56.019Z,20.97
2018-11-07T02:50:24.583Z,21.17
2018-11-07T02:52:53.110Z,21.20
2018-11-07T02:55:21.654Z,22.17
2018-11-07T02:57:50.333Z,21.60
2018-11-07T03:00:18.900Z,20.48
2018-11-07T03:02:47.531Z,21.30
2018-11-07T03:05:16.143Z,20.23
2018-11-07T03:07:44.661Z,20.30
2018-11-07T03:10:13.663Z,20.90
2018-11-07T03:12:42.507Z,22.58
2018-11-07T03:15:11.167Z,19.73
2018-11-07T03:17:39.711Z,20.60
2018-11-07T03:20:09.636Z,21.37
2018-11-07T03:22:38.234Z,22.50
2018-11-07T03:25:08.368Z,20.10
2018-11-07T03:27:36.924Z,18.90
2018-11-07T03:30:06.471Z,19.98
2018-11-07T03:32:34.988Z,21.40
2018-11-07T03:35:03.590Z,20.35
2018-11-07T03:37:32.172Z,21.10
2018-11-07T03:40:00.711Z,21.52
2018-11-07T03:42:29.264Z,20.68
2018-11-07T03:44:57.793Z,21.83
2018-11-07T03:47:26.353Z,20.52
2018-11-07T03:49:54.860Z,18.70
2018-11-07T03:52:23.373Z,21.35
2018-11-07T03:54:51.890Z,21.33
2018-11-07T03:57:20.457Z,22.98
2018-11-07T03:59:49.036Z,20.43
2018-11-07T04:02:17.545Z,21.42
2018-11-07T04:04:46.063Z,21.75
2018-11-07T04:07:14.621Z,21.40
2018-11-07T04:09:43.205Z,19.95
2018-11-07T04:12:11.754Z,22.98
2018-11-07T04:14:40.361Z,20.62
2018-11-07T04:17:08.936Z,19.12
2018-11-07T04:19:37.486Z,18.53
2018-11-07T04:22:05.989Z,21.42
2018-11-07T04:24:34.557Z,21.65
2018-11-07T04:27:05.012Z,20.30
2018-11-07T04:29:33.523Z,23.15
2018-11-07T04:32:02.067Z,20.45
2018-11-07T04:34:30.561Z,20.32
2018-11-07T04:36:59.142Z,20.55
2018-11-07T04:39:27.630Z,20.15
2018-11-07T04:41:56.232Z,22.27
2018-11-07T04:44:24.865Z,21.15
2018-11-07T04:46:53.402Z,20.20
2018-11-07T04:49:21.951Z,21.30
2018-11-07T04:51:50.614Z,21.77
2018-11-07T04:54:19.211Z,21.02
2018-11-07T04:56:47.739Z,23.18
2018-11-07T04:59:16.430Z,20.70
2018-11-07T05:01:44.925Z,20.77
2018-11-07T05:04:13.456Z,22.85
2018-11-07T05:06:41.985Z,21.57
2018-11-07T05:09:10.484Z,21.77
2018-11-07T05:11:39.096Z,21.02
2018-11-07T05:14:07.740Z,21.77
2018-11-07T05:16:36.300Z,20.08
2018-11-07T05:19:04.824Z,22.27
2018-11-07T05:21:33.390Z,22.17
2018-11-07T05:24:02.055Z,20.97
2018-11-07T05:26:30.580Z,20.72
2018-11-07T05:28:59.386Z,21.50
2018-11-07T05:31:27.900Z,21.57
2018-11-07T05:33:56.469Z,20.08
2018-11-07T05:36:24.961Z,21.77
2018-11-07T05:38:53.555Z,19.98
2018-11-07T05:41:22.097Z,19.55
2018-11-07T05:43:50.723Z,22.45
2018-11-07T05:46:19.474Z,21.30
2018-11-07T05:48:48.080Z,20.47
2018-11-07T05:51:16.567Z,22.37
2018-11-07T05:53:45.051Z,20.37
2018-11-07T05:56:13.615Z,20.77
2018-11-07T05:58:42.170Z,21.68
2018-11-07T06:01:12.481Z,21.57
2018-11-07T06:03:41.014Z,20.40
2018-11-07T06:06:09.599Z,21.80
2018-11-07T06:08:38.132Z,21.73
2018-11-07T06:11:06.725Z,22.97
2018-11-07T06:13:35.248Z,24.50
2018-11-07T06:16:03.768Z,20.85
2018-11-07T06:18:32.341Z,20.65
2018-11-07T06:21:01.111Z,21.45
2018-11-07T06:23:29.658Z,23.02
2018-11-07T06:25:58.193Z,22.55
2018-11-07T06:28:26.828Z,21.65
2018-11-07T06:30:55.327Z,23.67
2018-11-07T06:33:23.941Z,21.93
2018-11-07T06:35:52.559Z,20.37
2018-11-07T06:38:21.390Z,22.90
2018-11-07T06:40:49.960Z,22.73
2018-11-07T06:43:18.543Z,21.87
2018-11-07T06:45:47.097Z,21.70
2018-11-07T06:48:15.587Z,24.00
2018-11-07T06:50:44.191Z,23.02
2018-11-07T06:53:12.767Z,22.02
2018-11-07T06:55:41.330Z,22.40
2018-11-07T06:58:09.837Z,24.82
2018-11-07T07:00:38.378Z,21.90
2018-11-07T07:03:06.896Z,24.87
2018-11-07T07:05:35.400Z,23.12
2018-11-07T07:08:03.978Z,22.48
2018-11-07T07:10:32.465Z,22.77
2018-11-07T07:13:00.996Z,22.58
2018-11-07T07:15:29.577Z,22.57
2018-11-07T07:17:58.130Z,23.80
2018-11-07T07:20:26.674Z,23.60
2018-11-07T07:22:55.314Z,25.82
2018-11-07T07:25:23.930Z,23.10
2018-11-07T07:27:52.498Z,25.70
2018-11-07T07:30:22.005Z,25.00
2018-11-07T07:32:50.984Z,24.92
2018-11-07T07:35:19.605Z,22.45
2018-11-07T07:37:48.107Z,25.20
2018-11-07T07:40:17.276Z,26.00
2018-11-07T07:42:46.503Z,25.02
2018-11-07T07:45:17.473Z,24.63
2018-11-07T07:47:46.196Z,24.97
2018-11-07T07:50:16.122Z,24.90
2018-11-07T07:52:45.078Z,23.77
2018-11-07T07:55:13.695Z,23.98
2018-11-07T07:57:42.999Z,23.60
2018-11-07T08:00:16.561Z,23.70
2018-11-07T08:02:46.290Z,25.37
2018-11-07T08:05:14.796Z,25.73
2018-11-07T08:07:45.747Z,23.90
2018-11-07T08:10:17.600Z,26.62
2018-11-07T08:12:46.675Z,24.67
2018-11-07T08:15:15.981Z,26.35
2018-11-07T08:17:45.095Z,25.97
2018-11-07T08:20:14.795Z,26.00
2018-11-07T08:22:44.231Z,27.48
2018-11-07T08:25:12.886Z,27.57
2018-11-07T08:27:41.502Z,25.82
2018-11-07T08:30:13.251Z,25.48
2018-11-07T08:32:42.385Z,27.40
2018-11-07T08:35:12.135Z,24.85
2018-11-07T08:37:41.670Z,28.77
2018-11-07T08:40:13.635Z,27.52
2018-11-07T08:42:42.250Z,27.13
2018-11-07T08:45:11.780Z,26.82
2018-11-07T08:47:40.709Z,26.95
2018-11-07T08:50:11.455Z,26.42
2018-11-07T08:52:40.046Z,27.17
2018-11-07T08:55:10.585Z,26.90
2018-11-07T08:57:39.071Z,27.48
2018-11-07T09:00:11.155Z,26.37
2018-11-07T09:02:39.861Z,24.70
2018-11-07T09:05:08.784Z,25.70
2018-11-07T09:07:37.818Z,25.23
2018-11-07T09:10:08.138Z,25.77
2018-11-07T09:12:37.266Z,26.77
2018-11-07T09:15:07.435Z,26.12
2018-11-07T09:17:35.988Z,24.85
2018-11-07T09:20:04.649Z,27.57
2018-11-07T09:22:33.237Z,24.43
2018-11-07T09:25:01.915Z,24.67
2018-11-07T09:27:30.560Z,23.32
2018-11-07T09:29:59.153Z,24.43
2018-11-07T09:32:28.301Z,23.98
2018-11-07T09:34:56.834Z,21.45
2018-11-07T09:37:25.457Z,20.70
2018-11-07T09:39:54.062Z,18.98
2018-11-07T09:42:22.691Z,19.95
2018-11-07T09:44:51.233Z,19.75
2018-11-07T09:47:19.896Z,17.27
2018-11-07T09:49:48.405Z,18.62
2018-11-07T09:52:16.946Z,18.40
2018-11-07T09:54:45.527Z,17.80
2018-11-07T09:57:14.114Z,17.27
2018-11-07T09:59:42.759Z,15.68
2018-11-07T10:02:11.393Z,18.82
2018-11-07T10:04:39.983Z,19.95
2018-11-07T10:07:08.551Z,18.32
2018-11-07T10:09:37.145Z,17.98
2018-11-07T10:12:05.863Z,17.73
2018-11-07T10:14:34.399Z,16.70
2018-11-07T10:17:03.012Z,15.58
2018-11-07T10:19:31.587Z,17.27
2018-11-07T10:22:00.165Z,16.27
2018-11-07T10:24:28.770Z,18.23
2018-11-07T10:26:57.656Z,16.37
2018-11-07T10:29:26.416Z,16.97
2018-11-07T10:31:54.700Z,15.88
2018-11-07T10:34:23.286Z,15.43
2018-11-07T10:36:51.890Z,15.93
2018-11-07T10:39:20.418Z,18.40
2018-11-07T10:41:49.000Z,15.50
2018-11-07T10:44:17.603Z,17.55
2018-11-07T10:46:46.244Z,17.73
2018-11-07T10:49:14.827Z,17.17
2018-11-07T10:51:43.423Z,14.60
2018-11-07T10:54:12.043Z,16.17
2018-11-07T10:56:40.691Z,16.70
2018-11-07T10:59:09.270Z,17.30
2018-11-07T11:01:43.365Z,16.57
2018-11-07T11:04:11.885Z,15.50
2018-11-07T11:06:40.503Z,15.23
2018-11-07T11:09:09.261Z,17.37
2018-11-07T11:11:37.956Z,15.70
2018-11-07T11:14:06.578Z,16.52
2018-11-07T11:16:35.206Z,15.37
2018-11-07T11:19:03.788Z,15.03
2018-11-07T11:21:32.324Z,16.52
2018-11-07T11:24:00.868Z,16.27
2018-11-07T11:26:29.402Z,15.45
2018-11-07T11:28:57.936Z,15.78
2018-11-07T11:31:26.487Z,15.07
2018-11-07T11:33:55.332Z,14.18
2018-11-07T11:36:23.838Z,16.73
2018-11-07T11:38:52.399Z,14.10
2018-11-07T11:41:20.931Z,14.13
2018-11-07T11:43:49.521Z,14.30
2018-11-07T11:46:18.166Z,17.32
2018-11-07T11:48:46.670Z,15.00
2018-11-07T11:51:15.290Z,14.58
2018-11-07T11:53:45.332Z,14.85
2018-11-07T11:56:13.925Z,15.70
2018-11-07T11:58:42.499Z,12.65
2018-11-07T12:01:11.117Z,14.45
2018-11-07T12:03:39.652Z,14.90
2018-11-07T12:06:08.230Z,13.27
2018-11-07T12:08:36.769Z,13.78
2018-11-07T12:11:05.360Z,16.30
2018-11-07T12:13:33.858Z,14.23
2018-11-07T12:16:02.474Z,15.55
2018-11-07T12:18:31.020Z,14.40
2018-11-07T12:20:59.601Z,15.18
2018-11-07T12:23:28.111Z,13.03
2018-11-07T12:25:56.705Z,14.35
2018-11-07T12:28:25.257Z,13.95
2018-11-07T12:30:53.767Z,13.27
2018-11-07T12:33:22.274Z,13.55
2018-11-07T12:35:50.824Z,13.13
2018-11-07T12:38:19.347Z,13.18
2018-11-07T12:40:48.037Z,12.37
2018-11-07T12:43:16.647Z,15.20
2018-11-07T12:45:45.281Z,13.00
2018-11-07T12:48:13.840Z,13.70
2018-11-07T12:50:42.364Z,15.05
2018-11-07T12:53:10.929Z,16.23
2018-11-07T12:55:39.459Z,14.97
2018-11-07T12:58:08.301Z,14.07
2018-11-07T13:00:36.653Z,14.73
2018-11-07T13:03:05.713Z,16.30
2018-11-07T13:05:34.220Z,14.93
2018-11-07T13:08:02.717Z,15.60
2018-11-07T13:10:31.262Z,14.47
2018-11-07T13:12:59.901Z,14.70
2018-11-07T13:15:28.473Z,15.85
2018-11-07T13:17:57.033Z,16.70
2018-11-07T13:20:26.435Z,15.93
2018-11-07T13:22:55.567Z,15.10
2018-11-07T13:25:24.924Z,13.85
2018-11-07T13:27:53.510Z,14.45
2018-11-07T13:30:23.212Z,13.40
2018-11-07T13:32:51.763Z,14.85
2018-11-07T13:35:20.814Z,13.98
2018-11-07T13:37:50.360Z,14.60
2018-11-07T13:40:22.903Z,14.73
2018-11-07T13:42:51.589Z,15.50
2018-11-07T13:45:21.483Z,16.35
2018-11-07T13:47:51.256Z,16.52
2018-11-07T13:50:20.213Z,14.15
2018-11-07T13:52:49.041Z,13.38
2018-11-07T13:55:17.637Z,16.30
2018-11-07T13:57:46.432Z,13.65
2018-11-07T14:00:17.918Z,16.40
2018-11-07T14:02:46.797Z,15.20
2018-11-07T14:05:15.609Z,15.40
2018-11-07T14:07:44.210Z,15.38
2018-11-07T14:10:18.486Z,17.07
2018-11-07T14:12:47.085Z,14.23
2018-11-07T14:15:15.765Z,13.78
2018-11-07T14:17:44.560Z,16.17
2018-11-07T14:20:13.169Z,16.93
2018-11-07T14:22:41.944Z,16.10
2018-11-07T14:25:11.288Z,16.25
2018-11-07T14:27:40.201Z,14.43
2018-11-07T14:30:10.944Z,17.13
2018-11-07T14:32:42.803Z,16.48
2018-11-07T14:35:11.438Z,15.68
2018-11-07T14:37:40.042Z,14.95
2018-11-07T14:40:08.677Z,17.50
2018-11-07T14:42:37.479Z,17.15
2018-11-07T14:45:06.827Z,17.27
2018-11-07T14:47:35.503Z,15.72
2018-11-07T14:50:04.752Z,15.13
2018-11-07T14:52:33.288Z,17.02
2018-11-07T14:55:02.923Z,14.78
2018-11-07T15:00:22.197Z,17.00
2018-11-07T15:02:50.894Z,15.05
2018-11-07T15:05:19.804Z,16.12
2018-11-07T15:07:48.458Z,16.85
2018-11-07T15:10:17.741Z,17.02
2018-11-07T15:12:46.308Z,16.35
2018-11-07T15:15:16.117Z,16.35
2018-11-07T15:17:44.635Z,18.12
2018-11-07T15:20:14.340Z,18.77
2018-11-07T15:22:42.910Z,17.75
2018-11-07T15:25:12.735Z,18.67
2018-11-07T15:27:42.505Z,16.97
2018-11-07T15:30:12.091Z,15.23
2018-11-07T15:32:41.267Z,16.93
2018-11-07T15:35:10.327Z,16.82
2018-11-07T15:37:39.504Z,17.48
2018-11-07T15:40:11.192Z,18.12
2018-11-07T15:42:39.965Z,18.00
2018-11-07T15:45:10.454Z,20.60
2018-11-07T15:47:39.396Z,17.25
2018-11-07T15:50:13.201Z,19.37
2018-11-07T15:52:41.786Z,17.80
2018-11-07T15:55:10.379Z,18.70
2018-11-07T15:57:38.870Z,19.95
2018-11-07T16:00:10.179Z,19.77
2018-11-07T16:02:39.104Z,18.30
2018-11-07T16:05:08.273Z,18.52
2018-11-07T16:07:36.894Z,20.57
2018-11-07T16:10:06.623Z,20.15
2018-11-07T16:12:35.161Z,20.60
2018-11-07T16:15:03.994Z,20.57
2018-11-07T16:17:32.528Z,27.60
2018-11-07T16:20:01.048Z,26.07
2018-11-07T16:22:29.697Z,25.50
2018-11-07T16:24:58.163Z,27.58
2018-11-07T16:27:26.757Z,26.40
2018-11-07T16:29:55.265Z,25.35
2018-11-07T16:32:23.862Z,27.50
2018-11-07T16:34:52.371Z,27.20
2018-11-07T16:37:20.975Z,25.40
2018-11-07T16:39:49.711Z,23.65
2018-11-07T16:42:18.290Z,25.55
2018-11-07T16:44:47.511Z,24.32
2018-11-07T16:47:16.066Z,25.30
2018-11-07T16:49:44.901Z,25.52
2018-11-07T16:52:13.418Z,24.02
2018-11-07T16:54:42.033Z,25.40
2018-11-07T16:57:10.598Z,24.85
2018-11-07T16:59:39.538Z,24.27
2018-11-07T17:02:08.000Z,24.12
2018-11-07T17:04:36.526Z,25.17
2018-11-07T17:07:05.148Z,24.67
2018-11-07T17:09:33.601Z,23.20
2018-11-07T17:12:02.129Z,24.45
2018-11-07T17:14:30.968Z,21.95
2018-11-07T17:16:59.511Z,24.37
2018-11-07T17:19:28.038Z,23.62
2018-11-07T17:21:56.605Z,25.52
2018-11-07T17:24:25.207Z,23.55
2018-11-07T17:26:53.797Z,27.27
2018-11-07T17:29:22.945Z,22.20
2018-11-07T17:31:51.495Z,25.75
2018-11-07T17:34:20.057Z,25.52
2018-11-07T17:36:48.552Z,25.15
2018-11-07T17:39:17.131Z,24.67
2018-11-07T17:41:45.759Z,28.70
2018-11-07T17:44:14.270Z,26.30
2018-11-07T17:46:42.881Z,28.17
2018-11-07T17:49:11.686Z,27.98
2018-11-07T17:51:40.313Z,30.50
2018-11-07T17:54:08.884Z,28.23
2018-11-07T17:56:37.460Z,28.45
2018-11-07T17:59:06.021Z,28.02
2018-11-07T18:01:34.674Z,28.25
2018-11-07T18:04:03.222Z,27.70
2018-11-07T18:06:31.804Z,27.93
2018-11-07T18:09:00.494Z,29.12
2018-11-07T18:11:29.053Z,28.38
2018-11-07T18:13:57.524Z,29.30
2018-11-07T18:16:26.116Z,29.57
2018-11-07T18:18:54.657Z,28.17
2018-11-07T18:21:23.222Z,26.82
2018-11-07T18:23:51.777Z,27.37
2018-11-07T18:26:20.220Z,25.95
2018-11-07T18:28:48.741Z,26.93
2018-11-07T18:31:17.285Z,27.98
2018-11-07T18:33:45.843Z,30.17
2018-11-07T18:36:14.444Z,28.65
2018-11-07T18:38:42.936Z,29.37
2018-11-07T18:41:11.552Z,30.08
2018-11-07T18:43:40.116Z,29.75
2018-11-07T18:46:08.950Z,30.62
2018-11-07T18:48:38.255Z,27.85
2018-11-07T18:51:06.965Z,27.30
2018-11-07T18:53:35.462Z,27.07
2018-11-07T18:56:04.026Z,27.50
2018-11-07T18:58:32.546Z,26.70
2018-11-07T19:01:01.075Z,29.67
2018-11-07T19:03:29.608Z,30.25
2018-11-07T19:05:58.291Z,29.32
2018-11-07T19:08:26.820Z,27.02
2018-11-07T19:10:55.360Z,30.45
2018-11-07T19:13:23.895Z,28.52
2018-11-07T19:15:52.403Z,28.07
2018-11-07T19:18:20.941Z,29.18
2018-11-07T19:20:50.214Z,29.23
2018-11-07T19:23:18.788Z,26.65
2018-11-07T19:25:47.365Z,27.42
2018-11-07T19:28:15.963Z,30.88
2018-11-07T19:30:44.497Z,29.98
2018-11-07T19:33:13.051Z,30.00
2018-11-07T19:35:41.613Z,29.00
2018-11-07T19:38:10.182Z,24.27
2018-11-07T19:40:38.734Z,26.60
2018-11-07T19:43:07.332Z,26.12
2018-11-07T19:45:35.817Z,26.42
2018-11-07T19:48:04.330Z,24.52
2018-11-07T19:50:39.578Z,24.77
2018-11-07T19:53:08.153Z,26.02
2018-11-07T19:55:36.703Z,24.12
2018-11-07T19:58:05.797Z,22.98
2018-11-07T20:00:34.344Z,22.40
2018-11-07T20:03:02.885Z,22.87
2018-11-07T20:05:31.588Z,21.93
2018-11-07T20:08:00.258Z,21.50
2018-11-07T20:10:28.931Z,24.27
2018-11-07T20:12:57.430Z,21.17
2018-11-07T20:15:25.935Z,21.10
2018-11-07T20:17:54.487Z,22.00
2018-11-07T20:20:22.952Z,21.20
2018-11-07T20:22:51.656Z,22.93
2018-11-07T20:25:19.987Z,22.65
2018-11-07T20:27:48.508Z,23.07
2018-11-07T20:30:18.477Z,21.00
2018-11-07T20:32:46.952Z,21.93
2018-11-07T20:35:16.994Z,21.15
2018-11-07T20:37:45.835Z,22.10
2018-11-07T20:40:16.720Z,21.80
2018-11-07T20:42:45.548Z,22.27
2018-11-07T20:45:14.812Z,21.05
2018-11-07T20:47:43.448Z,21.68
2018-11-07T20:50:16.333Z,20.88
2018-11-07T20:52:45.679Z,19.65
2018-11-07T20:55:14.739Z,18.80
2018-11-07T20:57:43.332Z,18.77
2018-11-07T21:00:20.907Z,20.12
2018-11-07T21:02:49.842Z,17.37
2018-11-07T21:05:18.419Z,19.20
2018-11-07T21:07:46.973Z,19.15
2018-11-07T21:10:16.868Z,19.52
2018-11-07T21:12:45.921Z,18.35
2018-11-07T21:15:15.689Z,18.92
2018-11-07T21:17:44.640Z,18.52
2018-11-07T21:20:13.211Z,18.82
2018-11-07T21:22:42.302Z,19.35
2018-11-07T21:25:11.071Z,19.02
2018-11-07T21:27:40.020Z,19.92
2018-11-07T21:30:11.403Z,18.05
2018-11-07T21:32:40.252Z,17.92
2018-11-07T21:35:08.867Z,17.90
2018-11-07T21:37:37.667Z,16.97
2018-11-07T21:40:08.184Z,15.93
2018-11-07T21:42:36.682Z,15.90
2018-11-07T21:45:06.722Z,16.65
2018-11-07T21:47:35.222Z,17.77
2018-11-07T21:50:04.002Z,17.12
2018-11-07T21:52:32.515Z,16.90
2018-11-07T21:55:00.939Z,16.23
2018-11-07T21:57:29.467Z,16.80
2018-11-07T21:59:58.467Z,16.15
2018-11-07T22:02:26.984Z,16.55
2018-11-07T22:04:55.548Z,15.38
2018-11-07T22:07:24.085Z,15.30
2018-11-07T22:09:52.677Z,15.20
2018-11-07T22:12:21.246Z,14.35
2018-11-07T22:14:49.752Z,14.83
2018-11-07T22:17:18.284Z,15.05
2018-11-07T22:19:46.830Z,14.87
2018-11-07T22:22:15.294Z,15.60
2018-11-07T22:24:43.822Z,14.55
2018-11-07T22:27:12.283Z,15.93
2018-11-07T22:29:40.731Z,15.98
2018-11-07T22:32:09.229Z,16.27
2018-11-07T22:34:37.740Z,16.20
2018-11-07T22:37:06.318Z,17.03
2018-11-07T22:39:34.830Z,16.80
2018-11-07T22:42:03.397Z,18.82
2018-11-07T22:44:31.886Z,20.02
2018-11-07T22:47:00.351Z,19.07
2018-11-07T22:49:28.871Z,19.03
2018-11-07T22:51:57.681Z,17.80
2018-11-07T22:54:26.171Z,18.80
2018-11-07T22:56:54.609Z,18.17
2018-11-07T22:59:23.134Z,18.00
2018-11-07T23:01:51.657Z,17.02
2018-11-07T23:04:20.175Z,16.97
2018-11-07T23:06:48.669Z,16.93
2018-11-07T23:09:17.126Z,16.20
2018-11-07T23:11:45.643Z,15.32
2018-11-07T23:14:15.201Z,15.77
2018-11-07T23:16:44.336Z,14.78
2018-11-07T23:19:13.109Z,16.00
2018-11-07T23:21:41.622Z,15.70
2018-11-07T23:24:10.112Z,16.00
2018-11-07T23:26:38.604Z,15.35
2018-11-07T23:29:07.379Z,15.95
2018-11-07T23:31:35.844Z,15.48
2018-11-07T23:34:04.385Z,15.48
2018-11-07T23:36:32.855Z,16.52
2018-11-07T23:39:01.346Z,16.77
2018-11-07T23:41:29.783Z,16.32
2018-11-07T23:43:58.313Z,16.63
2018-11-07T23:46:26.794Z,16.25
2018-11-07T23:48:55.251Z,15.83
2018-11-07T23:51:23.792Z,15.95
2018-11-07T23:53:52.244Z,16.30
2018-11-07T23:56:20.821Z,16.93
2018-11-07T23:58:49.593Z,15.80
